createdAt,value
2023-02-14T00:01:26.728Z,4.55
2023-02-14T00:04:17.397Z,5.60
2023-02-14T00:07:01.533Z,4.85
2023-02-14T00:09:39.813Z,6.63
2023-02-14T00:12:09.423Z,6.10
2023-02-14T00:14:57.520Z,4.90
2023-02-14T00:17:27.204Z,5.82
2023-02-14T00:19:55.450Z,4.80
2023-02-14T00:22:24.457Z,6.88
2023-02-14T00:24:53.206Z,5.00
2023-02-14T00:27:21.614Z,8.30
2023-02-14T00:29:49.981Z,5.82
2023-02-14T00:32:19.440Z,5.80
2023-02-14T00:35:07.788Z,6.82
2023-02-14T00:41:09.812Z,16.20
2023-02-14T00:43:57.501Z,18.75
2023-02-14T00:46:45.219Z,21.15
2023-02-14T00:49:35.265Z,16.00
2023-02-14T00:52:22.865Z,19.25
2023-02-14T00:55:10.491Z,22.65
2023-02-14T00:57:44.520Z,32.10
2023-02-14T01:00:18.517Z,30.13
2023-02-14T01:03:08.351Z,19.85
2023-02-14T01:05:37.553Z,10.07
2023-02-14T01:08:06.784Z,9.82
2023-02-14T01:10:38.749Z,9.45
2023-02-14T01:13:09.420Z,8.32
2023-02-14T01:15:46.125Z,8.32
2023-02-14T01:18:14.892Z,11.82
2023-02-14T01:20:51.251Z,12.57
2023-02-14T01:23:40.593Z,15.60
2023-02-14T01:26:27.964Z,17.70
2023-02-14T01:28:58.961Z,17.88
2023-02-14T01:31:31.845Z,18.17
2023-02-14T01:34:04.703Z,17.10
2023-02-14T01:36:40.258Z,14.88
2023-02-14T01:39:11.442Z,18.90
2023-02-14T01:41:43.070Z,16.77
2023-02-14T01:44:17.353Z,18.23
2023-02-14T01:46:48.505Z,12.40
2023-02-14T01:49:33.260Z,9.57
2023-02-14T01:52:15.854Z,12.65
2023-02-14T01:55:18.958Z,12.20
2023-02-14T01:58:10.117Z,9.55
2023-02-14T02:00:59.793Z,8.50
2023-02-14T02:03:41.343Z,6.93
2023-02-14T02:06:48.664Z,9.70
2023-02-14T02:09:21.234Z,9.02
2023-02-14T02:11:56.986Z,12.18
2023-02-14T02:14:27.822Z,7.72
2023-02-14T02:17:03.893Z,8.30
2023-02-14T02:20:04.053Z,12.02
2023-02-14T02:22:47.530Z,8.77
2023-02-14T02:25:29.182Z,8.57
2023-02-14T02:27:59.946Z,12.32
2023-02-14T02:30:34.231Z,10.23
2023-02-14T02:33:20.909Z,13.57
2023-02-14T02:35:54.039Z,11.75
2023-02-14T02:38:41.794Z,14.85
2023-02-14T02:41:09.998Z,11.90
2023-02-14T02:43:41.756Z,17.33
2023-02-14T02:46:34.539Z,18.25
2023-02-14T02:49:35.910Z,12.75
2023-02-14T02:52:22.925Z,19.02
2023-02-14T02:54:59.993Z,13.38
2023-02-14T02:57:32.757Z,14.43
2023-02-14T03:00:12.488Z,15.75
2023-02-14T03:03:21.361Z,14.15
2023-02-14T03:06:02.393Z,14.82
2023-02-14T03:08:40.827Z,11.73
2023-02-14T03:11:17.600Z,21.27
2023-02-14T03:14:05.179Z,13.20
2023-02-14T03:16:56.528Z,17.25
2023-02-14T03:19:34.646Z,14.52
2023-02-14T03:22:06.150Z,15.30
2023-02-14T03:24:52.470Z,13.18
2023-02-14T03:27:23.825Z,13.88
2023-02-14T03:30:00.694Z,12.80
2023-02-14T03:32:47.501Z,14.60
2023-02-14T03:35:16.165Z,15.27
2023-02-14T03:37:53.899Z,15.18
2023-02-14T03:40:25.596Z,17.33
2023-02-14T03:43:02.019Z,14.23
2023-02-14T03:45:35.687Z,11.38
2023-02-14T03:48:06.865Z,15.23
2023-02-14T03:50:39.689Z,13.43
2023-02-14T03:53:09.471Z,16.50
2023-02-14T03:55:45.910Z,15.00
2023-02-14T03:58:22.248Z,17.15
2023-02-14T04:00:54.112Z,17.80
2023-02-14T04:03:33.307Z,16.35
2023-02-14T04:06:04.279Z,17.75
2023-02-14T04:08:33.988Z,15.50
2023-02-14T04:11:03.729Z,19.38
2023-02-14T04:13:36.244Z,20.70
2023-02-14T04:16:05.110Z,16.95
2023-02-14T04:18:51.153Z,16.48
2023-02-14T04:21:26.062Z,16.10
2023-02-14T04:24:16.127Z,22.38
2023-02-14T04:27:12.679Z,20.73
2023-02-14T04:29:42.030Z,19.67
2023-02-14T04:32:15.002Z,16.55
2023-02-14T04:34:45.950Z,19.15
2023-02-14T04:37:18.149Z,17.35
2023-02-14T04:40:05.977Z,20.33
2023-02-14T04:42:36.592Z,17.90
2023-02-14T04:45:05.214Z,18.27
2023-02-14T04:47:47.817Z,21.77
2023-02-14T04:50:16.801Z,19.20
2023-02-14T04:52:47.841Z,17.00
2023-02-14T04:55:20.186Z,19.65
2023-02-14T04:57:51.695Z,21.20
2023-02-14T05:00:22.340Z,18.55
2023-02-14T05:03:10.150Z,17.33
2023-02-14T05:05:57.817Z,24.80
2023-02-14T05:08:45.477Z,21.08
2023-02-14T05:11:16.965Z,19.67
2023-02-14T05:13:53.152Z,16.05
2023-02-14T05:16:39.171Z,20.92
2023-02-14T05:19:14.460Z,25.73
2023-02-14T05:21:57.489Z,22.65
2023-02-14T05:24:38.893Z,26.45
2023-02-14T05:27:26.476Z,20.33
2023-02-14T05:30:14.458Z,20.17
2023-02-14T05:33:04.559Z,24.00
2023-02-14T05:35:49.278Z,23.02
2023-02-14T05:38:37.037Z,31.27
2023-02-14T05:41:19.956Z,20.02
2023-02-14T05:43:51.092Z,26.85
2023-02-14T05:48:50.964Z,25.70
2023-02-14T05:51:20.345Z,27.05
2023-02-14T05:53:50.957Z,23.95
2023-02-14T05:56:38.596Z,28.75
2023-02-14T05:59:26.253Z,28.25
2023-02-14T06:02:10.961Z,30.88
2023-02-14T06:04:44.350Z,33.05
2023-02-14T06:07:34.274Z,27.63
2023-02-14T06:10:14.175Z,27.75
2023-02-14T06:12:51.415Z,27.17
2023-02-14T06:15:31.860Z,27.23
2023-02-14T06:18:01.410Z,28.65
2023-02-14T06:20:33.502Z,25.88
2023-02-14T06:23:05.119Z,31.30
2023-02-14T06:25:51.045Z,34.35
2023-02-14T06:28:19.469Z,30.55
2023-02-14T06:30:48.404Z,30.70
2023-02-14T06:33:36.148Z,33.58
2023-02-14T06:36:04.988Z,34.20
2023-02-14T06:38:33.983Z,30.02
2023-02-14T06:41:07.744Z,38.08
2023-02-14T06:43:36.650Z,41.33
2023-02-14T06:46:06.858Z,39.00
2023-02-14T06:48:44.442Z,38.30
2023-02-14T06:51:15.397Z,34.88
2023-02-14T06:53:44.970Z,41.28
2023-02-14T06:56:16.926Z,39.40
2023-02-14T06:58:45.599Z,41.10
2023-02-14T07:01:35.019Z,43.45
2023-02-14T07:04:21.192Z,42.63
2023-02-14T07:06:51.993Z,40.65
2023-02-14T07:09:25.595Z,37.10
2023-02-14T07:11:54.973Z,42.28
2023-02-14T07:14:25.333Z,47.17
2023-02-14T07:16:56.147Z,47.75
2023-02-14T07:19:26.317Z,39.97
2023-02-14T07:21:55.540Z,37.72
2023-02-14T07:24:27.499Z,34.58
2023-02-14T07:27:03.544Z,42.53
2023-02-14T07:29:45.230Z,33.72
2023-02-14T07:32:24.436Z,36.60
2023-02-14T07:35:14.408Z,39.65
2023-02-14T07:38:02.639Z,45.35
2023-02-14T07:40:33.962Z,38.72
2023-02-14T07:43:04.335Z,31.38
2023-02-14T07:45:35.921Z,40.90
2023-02-14T07:48:04.607Z,32.42
2023-02-14T07:50:43.221Z,31.88
2023-02-14T07:53:30.956Z,25.60
2023-02-14T07:56:06.437Z,32.00
2023-02-14T07:58:47.097Z,27.63
2023-02-14T08:01:18.244Z,33.38
2023-02-14T08:03:52.560Z,32.45
2023-02-14T08:06:22.766Z,26.33
2023-02-14T08:08:54.348Z,34.10
2023-02-14T08:11:40.743Z,31.10
2023-02-14T08:14:10.454Z,31.83
2023-02-14T08:16:39.800Z,27.63
2023-02-14T08:19:08.405Z,28.80
2023-02-14T08:21:58.541Z,30.83
2023-02-14T08:24:48.536Z,26.55
2023-02-14T08:27:36.114Z,28.60
2023-02-14T08:30:24.180Z,22.73
2023-02-14T08:33:12.306Z,27.63
2023-02-14T08:36:00.176Z,23.23
2023-02-14T08:38:48.584Z,25.67
2023-02-14T08:41:24.046Z,32.63
2023-02-14T08:44:10.631Z,25.13
2023-02-14T08:46:57.731Z,26.63
2023-02-14T08:49:34.203Z,26.48
2023-02-14T08:52:21.733Z,23.75
2023-02-14T08:54:58.125Z,30.90
2023-02-14T08:57:33.109Z,30.73
2023-02-14T09:00:04.905Z,30.15
2023-02-14T09:02:53.031Z,25.20
2023-02-14T09:05:23.426Z,32.17
2023-02-14T09:07:55.928Z,29.15
2023-02-14T09:10:24.947Z,25.05
2023-02-14T09:12:53.643Z,31.25
2023-02-14T09:15:22.736Z,32.17
2023-02-14T09:18:12.659Z,29.83
2023-02-14T09:21:00.503Z,30.90
2023-02-14T09:23:44.155Z,29.63
2023-02-14T09:26:32.591Z,32.20
2023-02-14T09:29:22.738Z,31.67
2023-02-14T09:31:55.404Z,29.02
2023-02-14T09:34:24.893Z,31.83
2023-02-14T09:37:11.561Z,36.63
2023-02-14T09:39:49.365Z,30.95
2023-02-14T09:42:22.140Z,27.17
2023-02-14T09:45:10.445Z,23.48
2023-02-14T09:47:47.768Z,26.10
2023-02-14T09:50:40.187Z,27.02
2023-02-14T09:53:19.483Z,26.02
2023-02-14T09:55:49.166Z,24.90
2023-02-14T09:58:22.956Z,28.15
2023-02-14T10:01:05.166Z,30.17
2023-02-14T10:04:00.972Z,26.73
2023-02-14T10:06:43.813Z,26.67
2023-02-14T10:09:42.260Z,23.77
2023-02-14T10:12:21.515Z,22.83
2023-02-14T10:14:49.843Z,28.48
2023-02-14T10:17:26.147Z,23.15
2023-02-14T10:20:02.720Z,25.88
2023-02-14T10:22:41.921Z,22.35
2023-02-14T10:25:16.430Z,22.63
2023-02-14T10:27:46.766Z,26.45
2023-02-14T10:30:17.403Z,23.23
2023-02-14T10:33:12.745Z,24.70
2023-02-14T10:35:50.026Z,23.73
2023-02-14T10:38:45.206Z,19.75
2023-02-14T10:41:23.807Z,26.90
2023-02-14T10:43:54.918Z,25.77
2023-02-14T10:46:40.827Z,24.27
2023-02-14T10:49:15.191Z,21.33
2023-02-14T10:51:54.447Z,25.23
2023-02-14T10:54:22.592Z,19.67
2023-02-14T10:56:52.749Z,25.60
2023-02-14T10:59:39.466Z,25.45
2023-02-14T11:02:09.639Z,27.02
2023-02-14T11:04:42.509Z,20.50
2023-02-14T11:07:21.434Z,21.35
2023-02-14T11:10:00.719Z,19.67
2023-02-14T11:12:45.079Z,25.35
2023-02-14T11:15:16.472Z,22.77
2023-02-14T11:17:45.180Z,23.08
2023-02-14T11:20:19.933Z,23.88
2023-02-14T11:22:49.383Z,21.17
2023-02-14T11:25:22.790Z,20.52
2023-02-14T11:27:55.982Z,22.30
2023-02-14T11:30:29.200Z,17.13
2023-02-14T11:33:13.804Z,23.70
2023-02-14T11:35:55.532Z,22.90
2023-02-14T11:38:44.805Z,24.92
2023-02-14T11:41:51.492Z,18.60
2023-02-14T11:44:43.979Z,23.42
2023-02-14T11:47:21.122Z,18.65
2023-02-14T11:49:57.258Z,20.40
2023-02-14T11:52:29.835Z,18.95
2023-02-14T11:55:01.423Z,21.60
2023-02-14T11:57:48.733Z,19.50
2023-02-14T12:00:32.624Z,22.15
2023-02-14T12:03:20.440Z,17.50
2023-02-14T12:05:53.899Z,19.13
2023-02-14T12:08:27.780Z,25.00
2023-02-14T12:11:02.902Z,23.67
2023-02-14T12:13:33.112Z,23.33
2023-02-14T12:16:03.880Z,18.25
2023-02-14T12:18:49.994Z,19.45
2023-02-14T12:21:24.490Z,23.58
2023-02-14T12:23:56.726Z,18.58
2023-02-14T12:26:37.423Z,18.88
2023-02-14T12:29:34.536Z,20.30
2023-02-14T12:32:11.817Z,18.40
2023-02-14T12:34:42.334Z,18.77
2023-02-14T12:37:45.497Z,15.85
2023-02-14T12:40:24.087Z,21.25
2023-02-14T12:43:12.883Z,24.50
2023-02-14T12:45:53.184Z,17.25
2023-02-14T12:48:24.345Z,16.13
2023-02-14T12:50:55.679Z,19.20
2023-02-14T12:53:31.978Z,16.83
2023-02-14T12:56:00.114Z,18.52
2023-02-14T12:58:38.218Z,21.13
2023-02-14T13:01:10.407Z,16.48
2023-02-14T13:03:57.635Z,19.33
2023-02-14T13:06:29.655Z,17.20
2023-02-14T13:09:12.408Z,19.15
2023-02-14T13:11:49.855Z,16.98
2023-02-14T13:14:41.474Z,20.70
2023-02-14T13:17:34.763Z,17.10
2023-02-14T13:20:06.736Z,22.42
2023-02-14T13:22:37.720Z,20.45
2023-02-14T13:25:14.366Z,20.13
2023-02-14T13:27:45.836Z,17.08
2023-02-14T13:30:28.800Z,17.10
2023-02-14T13:33:26.391Z,19.25
2023-02-14T13:36:01.552Z,16.38
2023-02-14T13:41:02.380Z,20.25
2023-02-14T13:43:56.177Z,20.85
2023-02-14T13:46:33.329Z,14.95
2023-02-14T13:49:02.775Z,20.95
2023-02-14T13:51:45.231Z,19.10
2023-02-14T13:54:32.566Z,17.00
2023-02-14T13:57:02.760Z,20.80
2023-02-14T13:59:35.153Z,19.30
2023-02-14T14:02:22.893Z,20.40
2023-02-14T14:04:56.296Z,18.08
2023-02-14T14:07:30.746Z,19.83
2023-02-14T14:10:00.048Z,20.90
2023-02-14T14:12:28.219Z,17.35
2023-02-14T14:15:05.805Z,19.10
2023-02-14T14:17:47.139Z,19.58
2023-02-14T14:20:18.730Z,20.38
2023-02-14T14:22:49.355Z,18.77
2023-02-14T14:25:33.971Z,21.15
2023-02-14T14:28:11.742Z,22.10
2023-02-14T14:30:44.850Z,23.25
2023-02-14T14:33:34.016Z,18.02
2023-02-14T14:36:26.189Z,18.05
2023-02-14T14:39:00.794Z,17.95
2023-02-14T14:41:46.270Z,22.38
2023-02-14T14:44:20.669Z,21.67
2023-02-14T14:46:49.925Z,17.60
2023-02-14T14:49:21.314Z,15.98
2023-02-14T14:51:58.739Z,18.58
2023-02-14T14:54:44.518Z,16.50
2023-02-14T14:57:18.460Z,17.50
2023-02-14T14:59:49.302Z,17.30
2023-02-14T15:02:26.346Z,18.95
2023-02-14T15:04:54.948Z,18.85
2023-02-14T15:07:33.119Z,17.67
2023-02-14T15:10:02.476Z,13.75
2023-02-14T15:12:51.011Z,19.45
2023-02-14T15:15:19.495Z,18.50
2023-02-14T15:17:50.822Z,16.83
2023-02-14T15:20:23.299Z,18.90
2023-02-14T15:22:54.550Z,19.05
2023-02-14T15:25:29.363Z,15.50
2023-02-14T15:27:58.344Z,20.70
2023-02-14T15:30:33.970Z,20.08
2023-02-14T15:33:18.228Z,17.73
2023-02-14T15:35:47.374Z,20.08
2023-02-14T15:38:33.810Z,17.05
2023-02-14T15:41:03.934Z,17.58
2023-02-14T15:43:51.660Z,19.50
2023-02-14T15:46:36.596Z,19.40
2023-02-14T15:49:10.681Z,15.88
2023-02-14T15:51:39.624Z,16.98
2023-02-14T15:54:09.644Z,18.48
2023-02-14T15:56:43.789Z,21.35
2023-02-14T15:59:19.616Z,20.13
2023-02-14T16:02:01.519Z,21.63
2023-02-14T16:04:34.474Z,16.00
2023-02-14T16:07:28.937Z,15.73
2023-02-14T16:10:15.500Z,15.52
2023-02-14T16:13:01.325Z,18.60
2023-02-14T16:15:38.778Z,19.63
2023-02-14T16:18:23.194Z,17.55
2023-02-14T16:20:51.975Z,17.35
2023-02-14T16:23:28.281Z,20.50
2023-02-14T16:25:58.298Z,18.17
2023-02-14T16:28:30.292Z,16.50
2023-02-14T16:31:10.496Z,13.63
2023-02-14T16:33:40.792Z,21.90
2023-02-14T16:36:29.386Z,16.50
2023-02-14T16:39:02.923Z,19.35
2023-02-14T16:41:54.859Z,21.88
2023-02-14T16:44:23.085Z,20.27
2023-02-14T16:47:12.267Z,19.42
2023-02-14T16:50:02.318Z,17.27
2023-02-14T16:52:46.574Z,17.50
2023-02-14T16:55:31.280Z,15.43
2023-02-14T16:58:19.484Z,14.85
2023-02-14T17:00:59.452Z,18.20
2023-02-14T17:03:32.079Z,13.27
2023-02-14T17:06:01.436Z,16.27
2023-02-14T17:08:33.136Z,24.30
2023-02-14T17:11:04.331Z,19.08
2023-02-14T17:13:41.062Z,16.60
2023-02-14T17:16:23.656Z,16.67
2023-02-14T17:19:05.753Z,24.15
2023-02-14T17:21:39.776Z,19.60
2023-02-14T17:24:11.271Z,22.40
2023-02-14T17:26:51.101Z,14.90
2023-02-14T17:29:33.171Z,18.30
2023-02-14T17:32:15.220Z,15.90
2023-02-14T17:34:45.740Z,19.17
2023-02-14T17:37:18.915Z,18.80
2023-02-14T17:39:58.649Z,16.40
2023-02-14T17:42:39.150Z,14.98
2023-02-14T17:45:15.477Z,18.27
2023-02-14T17:47:51.996Z,16.63
2023-02-14T17:50:31.311Z,14.52
2023-02-14T17:53:21.440Z,23.77
2023-02-14T17:56:08.715Z,13.68
2023-02-14T17:58:37.768Z,16.25
2023-02-14T18:01:09.520Z,26.95
2023-02-14T18:03:47.915Z,37.22
2023-02-14T18:06:29.661Z,37.67
2023-02-14T18:09:08.831Z,28.75
2023-02-14T18:11:44.364Z,28.00
2023-02-14T18:14:16.021Z,35.65
2023-02-14T18:16:52.199Z,29.50
2023-02-14T18:19:31.755Z,31.33
2023-02-14T18:22:14.773Z,35.35
2023-02-14T18:27:30.069Z,31.90
2023-02-14T18:30:01.673Z,25.63
2023-02-14T18:32:51.702Z,28.60
2023-02-14T18:35:28.043Z,22.20
2023-02-14T18:37:57.048Z,25.60
2023-02-14T18:40:27.762Z,20.50
2023-02-14T18:42:56.120Z,20.40
2023-02-14T18:45:27.526Z,24.40
2023-02-14T18:47:59.409Z,19.20
2023-02-14T18:50:28.185Z,17.05
2023-02-14T18:53:00.395Z,15.85
2023-02-14T18:55:29.807Z,24.95
2023-02-14T18:58:01.210Z,18.58
2023-02-14T19:00:33.700Z,23.98
2023-02-14T19:03:21.341Z,18.42
2023-02-14T19:05:53.652Z,23.05
2023-02-14T19:08:22.461Z,17.27
2023-02-14T19:10:50.857Z,20.25
2023-02-14T19:13:20.861Z,22.98
2023-02-14T19:15:49.847Z,18.35
2023-02-14T19:18:19.040Z,22.65
2023-02-14T19:20:49.829Z,18.05
2023-02-14T19:23:19.368Z,19.23
2023-02-14T19:25:50.144Z,20.55
2023-02-14T19:28:18.657Z,16.38
2023-02-14T19:30:47.082Z,19.15
2023-02-14T19:33:31.467Z,23.05
2023-02-14T19:36:09.338Z,21.73
2023-02-14T19:38:53.036Z,16.73
2023-02-14T19:41:38.177Z,16.52
2023-02-14T19:44:22.014Z,17.53
2023-02-14T19:46:59.887Z,19.15
2023-02-14T19:49:30.620Z,17.70
2023-02-14T19:52:00.337Z,20.48
2023-02-14T19:54:30.857Z,22.40
2023-02-14T19:56:59.385Z,21.08
2023-02-14T19:59:33.507Z,18.58
2023-02-14T20:02:02.160Z,22.02
2023-02-14T20:04:32.756Z,20.83
2023-02-14T20:07:05.457Z,18.17
2023-02-14T20:09:34.971Z,21.08
2023-02-14T20:12:07.337Z,25.17
2023-02-14T20:14:50.837Z,23.63
2023-02-14T20:17:19.865Z,29.48
2023-02-14T20:19:59.067Z,22.63
2023-02-14T20:22:46.690Z,20.27
2023-02-14T20:25:29.395Z,22.85
2023-02-14T20:27:59.156Z,23.50
2023-02-14T20:30:28.104Z,24.58
2023-02-14T20:33:16.065Z,20.60
2023-02-14T20:35:44.676Z,22.58
2023-02-14T20:38:13.627Z,23.63
2023-02-14T20:40:53.972Z,28.83
2023-02-14T20:43:37.117Z,24.35
2023-02-14T20:46:13.393Z,22.50
2023-02-14T20:48:56.053Z,23.58
2023-02-14T20:51:25.575Z,21.77
2023-02-14T20:53:55.380Z,26.88
2023-02-14T20:56:26.601Z,21.45
2023-02-14T20:59:00.530Z,26.25
2023-02-14T21:01:40.384Z,22.30
2023-02-14T21:04:19.149Z,18.15
2023-02-14T21:06:50.490Z,23.95
2023-02-14T21:09:20.867Z,25.50
2023-02-14T21:11:50.702Z,26.42
2023-02-14T21:14:20.898Z,24.88
2023-02-14T21:16:52.202Z,27.17
2023-02-14T21:19:21.264Z,21.83
2023-02-14T21:21:51.493Z,29.13
2023-02-14T21:24:24.370Z,24.20
2023-02-14T21:26:54.064Z,24.15
2023-02-14T21:29:24.138Z,23.00
2023-02-14T21:31:54.310Z,25.45
2023-02-14T21:34:23.182Z,22.40
2023-02-14T21:36:56.032Z,23.58
2023-02-14T21:39:38.432Z,23.02
2023-02-14T21:42:17.206Z,22.27
2023-02-14T21:45:14.246Z,23.75
2023-02-14T21:48:19.616Z,26.08
2023-02-14T21:50:52.030Z,24.70
2023-02-14T21:56:04.441Z,36.08
2023-02-14T21:58:35.433Z,34.55
2023-02-14T22:01:04.220Z,24.25
2023-02-14T22:03:46.583Z,29.23
2023-02-14T22:06:15.624Z,25.98
2023-02-14T22:08:46.422Z,32.38
2023-02-14T22:11:17.344Z,35.25
2023-02-14T22:13:50.602Z,28.75
2023-02-14T22:16:20.566Z,31.00
2023-02-14T22:18:53.438Z,29.27
2023-02-14T22:21:24.006Z,27.70
2023-02-14T22:23:52.487Z,32.30
2023-02-14T22:26:25.799Z,36.97
2023-02-14T22:28:56.972Z,34.88
2023-02-14T22:31:28.773Z,33.13
2023-02-14T22:34:02.233Z,36.25
2023-02-14T22:36:34.075Z,34.28
2023-02-14T22:39:03.132Z,35.55
2023-02-14T22:41:42.101Z,36.30
2023-02-14T22:44:11.223Z,39.05
2023-02-14T22:46:42.500Z,37.70
2023-02-14T22:49:11.121Z,35.92
2023-02-14T22:51:51.485Z,37.13
2023-02-14T22:54:35.896Z,33.75
2023-02-14T22:57:04.144Z,37.40
2023-02-14T22:59:35.771Z,40.03
2023-02-14T23:02:14.653Z,36.17
2023-02-14T23:04:57.874Z,37.42
2023-02-14T23:07:45.702Z,37.22
2023-02-14T23:10:26.487Z,38.72
2023-02-14T23:13:14.504Z,37.10
2023-02-14T23:16:07.000Z,50.95
2023-02-14T23:18:56.395Z,39.65
2023-02-14T23:21:45.383Z,38.10
2023-02-14T23:24:16.505Z,39.55
2023-02-14T23:26:52.101Z,38.70
2023-02-14T23:29:35.705Z,41.13
2023-02-14T23:32:07.602Z,37.80
2023-02-14T23:34:41.013Z,37.88
2023-02-14T23:37:11.730Z,35.28
2023-02-14T23:39:43.072Z,36.03
2023-02-14T23:42:14.630Z,35.10
2023-02-14T23:44:44.326Z,43.63
2023-02-14T23:47:13.669Z,35.90
2023-02-14T23:49:43.151Z,37.00
2023-02-14T23:52:14.816Z,38.58
2023-02-14T23:54:49.781Z,34.47
2023-02-14T23:57:25.695Z,35.40
2023-02-14T23:59:56.034Z,38.20
